sensor_id;sensor_type;location;lat;lon;timestamp;P1;durP1;ratioP1;P2;durP2;ratioP2
2934;SDS011;2462;51.456;7.248;2023-10-13T00:01:18;3.80;;;3.50;;
2934;SDS011;2462;51.456;7.248;2023-10-13T00:03:44;3.80;;;2.93;;
2934;SDS011;2462;51.456;7.248;2023-10-13T00:06:10;5.70;;;3.87;;
2934;SDS011;2462;51.456;7.248;2023-10-13T00:08:36;4.70;;;3.63;;
2934;SDS011;2462;51.456;7.248;2023-10-13T00:11:04;3.70;;;3.40;;
2934;SDS011;2462;51.456;7.248;2023-10-13T00:13:30;4.43;;;3.57;;
2934;SDS011;2462;51.456;7.248;2023-10-13T00:16:15;5.40;;;3.73;;
2934;SDS011;2462;51.456;7.248;2023-10-13T00:18:42;3.70;;;3.20;;
2934;SDS011;2462;51.456;7.248;2023-10-13T00:21:09;6.20;;;3.60;;
2934;SDS011;2462;51.456;7.248;2023-10-13T00:23:41;3.97;;;3.63;;
2934;SDS011;2462;51.456;7.248;2023-10-13T00:26:24;3.47;;;3.27;;
2934;SDS011;2462;51.456;7.248;2023-10-13T00:28:53;4.10;;;3.20;;
2934;SDS011;2462;51.456;7.248;2023-10-13T00:31:38;4.07;;;3.77;;
2934;SDS011;2462;51.456;7.248;2023-10-13T00:34:07;4.73;;;4.00;;
2934;SDS011;2462;51.456;7.248;2023-10-13T00:36:37;4.30;;;3.20;;
2934;SDS011;2462;51.456;7.248;2023-10-13T00:39:13;3.73;;;3.43;;
2934;SDS011;2462;51.456;7.248;2023-10-13T00:41:41;4.10;;;3.70;;
2934;SDS011;2462;51.456;7.248;2023-10-13T00:44:30;3.57;;;3.27;;
2934;SDS011;2462;51.456;7.248;2023-10-13T00:47:19;3.57;;;3.27;;
2934;SDS011;2462;51.456;7.248;2023-10-13T00:50:00;3.73;;;3.40;;
2934;SDS011;2462;51.456;7.248;2023-10-13T00:52:26;3.50;;;3.20;;
2934;SDS011;2462;51.456;7.248;2023-10-13T00:54:54;3.40;;;3.10;;
2934;SDS011;2462;51.456;7.248;2023-10-13T00:57:20;3.77;;;3.43;;
2934;SDS011;2462;51.456;7.248;2023-10-13T00:59:54;3.17;;;2.97;;
2934;SDS011;2462;51.456;7.248;2023-10-13T01:02:20;3.90;;;3.43;;
2934;SDS011;2462;51.456;7.248;2023-10-13T01:05:05;4.30;;;3.90;;
2934;SDS011;2462;51.456;7.248;2023-10-13T01:07:44;4.10;;;3.70;;
2934;SDS011;2462;51.456;7.248;2023-10-13T01:10:15;4.33;;;3.30;;
2934;SDS011;2462;51.456;7.248;2023-10-13T01:12:41;4.63;;;3.40;;
2934;SDS011;2462;51.456;7.248;2023-10-13T01:15:08;3.03;;;2.83;;
2934;SDS011;2462;51.456;7.248;2023-10-13T01:17:36;4.10;;;3.67;;
2934;SDS011;2462;51.456;7.248;2023-10-13T01:20:02;4.00;;;3.30;;
2934;SDS011;2462;51.456;7.248;2023-10-13T01:22:30;4.03;;;2.90;;
2934;SDS011;2462;51.456;7.248;2023-10-13T01:24:57;4.20;;;3.77;;
2934;SDS011;2462;51.456;7.248;2023-10-13T01:27:30;3.30;;;3.00;;
2934;SDS011;2462;51.456;7.248;2023-10-13T01:29:56;4.87;;;3.77;;
2934;SDS011;2462;51.456;7.248;2023-10-13T01:32:31;3.30;;;3.00;;
2934;SDS011;2462;51.456;7.248;2023-10-13T01:34:57;3.27;;;2.97;;
2934;SDS011;2462;51.456;7.248;2023-10-13T01:37:30;3.40;;;3.10;;
2934;SDS011;2462;51.456;7.248;2023-10-13T01:39:56;3.83;;;3.40;;
2934;SDS011;2462;51.456;7.248;2023-10-13T01:42:22;3.40;;;3.10;;
2934;SDS011;2462;51.456;7.248;2023-10-13T01:44:49;3.83;;;3.43;;
2934;SDS011;2462;51.456;7.248;2023-10-13T01:47:16;4.27;;;3.00;;
2934;SDS011;2462;51.456;7.248;2023-10-13T01:49:42;4.63;;;3.50;;
2934;SDS011;2462;51.456;7.248;2023-10-13T01:52:11;3.83;;;3.30;;
2934;SDS011;2462;51.456;7.248;2023-10-13T01:54:40;4.60;;;3.40;;
2934;SDS011;2462;51.456;7.248;2023-10-13T01:57:09;3.33;;;3.03;;
2934;SDS011;2462;51.456;7.248;2023-10-13T01:59:39;3.97;;;3.57;;
2934;SDS011;2462;51.456;7.248;2023-10-13T02:02:09;4.03;;;3.63;;
2934;SDS011;2462;51.456;7.248;2023-10-13T02:04:37;3.10;;;2.90;;
2934;SDS011;2462;51.456;7.248;2023-10-13T02:07:07;3.63;;;3.33;;
2934;SDS011;2462;51.456;7.248;2023-10-13T02:09:33;3.17;;;2.87;;
2934;SDS011;2462;51.456;7.248;2023-10-13T02:12:02;3.37;;;3.00;;
2934;SDS011;2462;51.456;7.248;2023-10-13T02:14:28;3.37;;;3.03;;
2934;SDS011;2462;51.456;7.248;2023-10-13T02:16:58;3.20;;;3.00;;
2934;SDS011;2462;51.456;7.248;2023-10-13T02:19:41;4.20;;;3.50;;
2934;SDS011;2462;51.456;7.248;2023-10-13T02:22:13;4.47;;;3.60;;
2934;SDS011;2462;51.456;7.248;2023-10-13T02:25:05;3.80;;;3.17;;
2934;SDS011;2462;51.456;7.248;2023-10-13T02:27:41;4.00;;;3.03;;
2934;SDS011;2462;51.456;7.248;2023-10-13T02:30:08;3.47;;;3.00;;
2934;SDS011;2462;51.456;7.248;2023-10-13T02:32:39;3.30;;;3.00;;
2934;SDS011;2462;51.456;7.248;2023-10-13T02:35:08;3.30;;;3.00;;
2934;SDS011;2462;51.456;7.248;2023-10-13T02:37:41;3.90;;;3.53;;
2934;SDS011;2462;51.456;7.248;2023-10-13T02:40:19;3.03;;;2.53;;
2934;SDS011;2462;51.456;7.248;2023-10-13T02:42:48;3.13;;;2.93;;
2934;SDS011;2462;51.456;7.248;2023-10-13T02:45:14;3.63;;;3.20;;
2934;SDS011;2462;51.456;7.248;2023-10-13T02:47:40;3.30;;;2.93;;
2934;SDS011;2462;51.456;7.248;2023-10-13T02:50:09;3.60;;;3.30;;
2934;SDS011;2462;51.456;7.248;2023-10-13T02:52:38;3.93;;;3.57;;
2934;SDS011;2462;51.456;7.248;2023-10-13T02:55:07;3.50;;;3.20;;
2934;SDS011;2462;51.456;7.248;2023-10-13T02:57:39;3.50;;;3.20;;
2934;SDS011;2462;51.456;7.248;2023-10-13T03:00:09;3.50;;;3.20;;
2934;SDS011;2462;51.456;7.248;2023-10-13T03:02:38;3.23;;;3.00;;
2934;SDS011;2462;51.456;7.248;2023-10-13T03:05:10;3.17;;;2.87;;
2934;SDS011;2462;51.456;7.248;2023-10-13T03:07:39;3.97;;;3.57;;
2934;SDS011;2462;51.456;7.248;2023-10-13T03:10:08;3.30;;;3.00;;
2934;SDS011;2462;51.456;7.248;2023-10-13T03:12:36;3.10;;;2.83;;
2934;SDS011;2462;51.456;7.248;2023-10-13T03:15:02;3.53;;;3.23;;
2934;SDS011;2462;51.456;7.248;2023-10-13T03:17:46;3.27;;;2.97;;
2934;SDS011;2462;51.456;7.248;2023-10-13T03:20:13;4.33;;;3.37;;
2934;SDS011;2462;51.456;7.248;2023-10-13T03:22:40;3.70;;;2.67;;
2934;SDS011;2462;51.456;7.248;2023-10-13T03:25:09;3.43;;;2.80;;
2934;SDS011;2462;51.456;7.248;2023-10-13T03:27:42;6.00;;;3.40;;
2934;SDS011;2462;51.456;7.248;2023-10-13T03:30:26;3.63;;;3.33;;
2934;SDS011;2462;51.456;7.248;2023-10-13T03:33:07;3.13;;;2.90;;
2934;SDS011;2462;51.456;7.248;2023-10-13T03:35:38;3.30;;;3.00;;
2934;SDS011;2462;51.456;7.248;2023-10-13T03:38:07;4.20;;;3.20;;
2934;SDS011;2462;51.456;7.248;2023-10-13T03:40:43;3.90;;;3.60;;
2934;SDS011;2462;51.456;7.248;2023-10-13T03:43:13;2.93;;;2.73;;
2934;SDS011;2462;51.456;7.248;2023-10-13T03:45:42;2.93;;;2.73;;
2934;SDS011;2462;51.456;7.248;2023-10-13T03:48:08;3.97;;;2.97;;
2934;SDS011;2462;51.456;7.248;2023-10-13T03:50:36;4.27;;;3.40;;
2934;SDS011;2462;51.456;7.248;2023-10-13T03:53:06;3.53;;;3.20;;
2934;SDS011;2462;51.456;7.248;2023-10-13T03:55:37;3.40;;;3.10;;
2934;SDS011;2462;51.456;7.248;2023-10-13T03:58:04;3.70;;;3.40;;
2934;SDS011;2462;51.456;7.248;2023-10-13T04:00:30;3.50;;;3.20;;
2934;SDS011;2462;51.456;7.248;2023-10-13T04:02:56;3.30;;;3.00;;
2934;SDS011;2462;51.456;7.248;2023-10-13T04:05:34;3.37;;;3.07;;
2934;SDS011;2462;51.456;7.248;2023-10-13T04:08:09;4.80;;;3.80;;
2934;SDS011;2462;51.456;7.248;2023-10-13T04:10:51;3.43;;;3.13;;
2934;SDS011;2462;51.456;7.248;2023-10-13T04:13:17;3.20;;;2.83;;
2934;SDS011;2462;51.456;7.248;2023-10-13T04:15:46;3.80;;;3.00;;
2934;SDS011;2462;51.456;7.248;2023-10-13T04:18:32;3.83;;;3.53;;
2934;SDS011;2462;51.456;7.248;2023-10-13T04:21:11;3.33;;;3.00;;
2934;SDS011;2462;51.456;7.248;2023-10-13T04:24:01;3.67;;;3.30;;
2934;SDS011;2462;51.456;7.248;2023-10-13T04:26:44;4.23;;;3.20;;
2934;SDS011;2462;51.456;7.248;2023-10-13T04:29:29;3.47;;;2.93;;
2934;SDS011;2462;51.456;7.248;2023-10-13T04:32:30;3.30;;;3.00;;
2934;SDS011;2462;51.456;7.248;2023-10-13T04:35:12;3.57;;;3.13;;
2934;SDS011;2462;51.456;7.248;2023-10-13T04:37:38;3.03;;;2.83;;
2934;SDS011;2462;51.456;7.248;2023-10-13T04:40:23;3.60;;;3.30;;
2934;SDS011;2462;51.456;7.248;2023-10-13T04:42:50;3.37;;;3.07;;
2934;SDS011;2462;51.456;7.248;2023-10-13T04:45:22;3.53;;;3.20;;
2934;SDS011;2462;51.456;7.248;2023-10-13T04:47:57;3.80;;;3.50;;
2934;SDS011;2462;51.456;7.248;2023-10-13T04:50:43;4.30;;;2.90;;
2934;SDS011;2462;51.456;7.248;2023-10-13T04:53:16;3.87;;;3.30;;
2934;SDS011;2462;51.456;7.248;2023-10-13T04:55:57;3.37;;;3.03;;
2934;SDS011;2462;51.456;7.248;2023-10-13T04:58:32;3.00;;;2.80;;
2934;SDS011;2462;51.456;7.248;2023-10-13T05:01:04;3.60;;;3.30;;
2934;SDS011;2462;51.456;7.248;2023-10-13T05:03:49;3.50;;;3.20;;
2934;SDS011;2462;51.456;7.248;2023-10-13T05:06:38;3.23;;;2.93;;
2934;SDS011;2462;51.456;7.248;2023-10-13T05:09:04;4.57;;;3.10;;
2934;SDS011;2462;51.456;7.248;2023-10-13T05:11:48;5.03;;;3.50;;
2934;SDS011;2462;51.456;7.248;2023-10-13T05:14:33;2.50;;;2.30;;
2934;SDS011;2462;51.456;7.248;2023-10-13T05:17:18;2.77;;;2.57;;
2934;SDS011;2462;51.456;7.248;2023-10-13T05:20:02;2.80;;;2.60;;
2934;SDS011;2462;51.456;7.248;2023-10-13T05:22:47;3.67;;;3.10;;
2934;SDS011;2462;51.456;7.248;2023-10-13T05:25:34;3.13;;;2.83;;
2934;SDS011;2462;51.456;7.248;2023-10-13T05:28:19;2.77;;;2.57;;
2934;SDS011;2462;51.456;7.248;2023-10-13T05:31:04;3.10;;;2.90;;
2934;SDS011;2462;51.456;7.248;2023-10-13T05:33:48;3.87;;;3.00;;
2934;SDS011;2462;51.456;7.248;2023-10-13T05:36:33;3.20;;;2.90;;
2934;SDS011;2462;51.456;7.248;2023-10-13T05:39:18;3.30;;;2.87;;
2934;SDS011;2462;51.456;7.248;2023-10-13T05:42:03;2.93;;;2.40;;
2934;SDS011;2462;51.456;7.248;2023-10-13T05:44:47;3.70;;;3.10;;
2934;SDS011;2462;51.456;7.248;2023-10-13T05:47:31;3.73;;;3.43;;
2934;SDS011;2462;51.456;7.248;2023-10-13T05:50:04;2.80;;;2.60;;
2934;SDS011;2462;51.456;7.248;2023-10-13T05:52:38;2.30;;;2.10;;
2934;SDS011;2462;51.456;7.248;2023-10-13T05:55:19;3.20;;;2.93;;
2934;SDS011;2462;51.456;7.248;2023-10-13T05:58:03;3.23;;;2.93;;
2934;SDS011;2462;51.456;7.248;2023-10-13T06:00:48;3.40;;;3.10;;
2934;SDS011;2462;51.456;7.248;2023-10-13T06:03:32;2.43;;;2.23;;
2934;SDS011;2462;51.456;7.248;2023-10-13T06:06:17;2.77;;;2.57;;
2934;SDS011;2462;51.456;7.248;2023-10-13T06:09:01;2.80;;;2.50;;
2934;SDS011;2462;51.456;7.248;2023-10-13T06:11:46;2.87;;;2.67;;
2934;SDS011;2462;51.456;7.248;2023-10-13T06:14:30;2.97;;;2.70;;
2934;SDS011;2462;51.456;7.248;2023-10-13T06:17:15;2.77;;;2.50;;
2934;SDS011;2462;51.456;7.248;2023-10-13T06:19:59;2.57;;;2.37;;
2934;SDS011;2462;51.456;7.248;2023-10-13T06:22:46;3.00;;;2.80;;
2934;SDS011;2462;51.456;7.248;2023-10-13T06:25:31;2.53;;;2.33;;
2934;SDS011;2462;51.456;7.248;2023-10-13T06:28:16;3.07;;;2.77;;
2934;SDS011;2462;51.456;7.248;2023-10-13T06:31:01;2.60;;;2.40;;
2934;SDS011;2462;51.456;7.248;2023-10-13T06:33:27;2.97;;;2.37;;
2934;SDS011;2462;51.456;7.248;2023-10-13T06:35:58;2.57;;;2.37;;
2934;SDS011;2462;51.456;7.248;2023-10-13T06:38:24;2.80;;;2.27;;
2934;SDS011;2462;51.456;7.248;2023-10-13T06:40:56;2.40;;;2.20;;
2934;SDS011;2462;51.456;7.248;2023-10-13T06:43:22;2.70;;;2.13;;
2934;SDS011;2462;51.456;7.248;2023-10-13T06:45:48;2.50;;;2.30;;
2934;SDS011;2462;51.456;7.248;2023-10-13T06:48:27;3.27;;;2.80;;
2934;SDS011;2462;51.456;7.248;2023-10-13T06:50:58;3.20;;;2.90;;
2934;SDS011;2462;51.456;7.248;2023-10-13T06:53:29;2.10;;;1.90;;
2934;SDS011;2462;51.456;7.248;2023-10-13T06:56:01;2.53;;;2.33;;
2934;SDS011;2462;51.456;7.248;2023-10-13T06:58:28;2.70;;;2.50;;
2934;SDS011;2462;51.456;7.248;2023-10-13T07:00:54;2.43;;;2.23;;
2934;SDS011;2462;51.456;7.248;2023-10-13T07:03:20;3.20;;;2.60;;
2934;SDS011;2462;51.456;7.248;2023-10-13T07:05:46;4.20;;;2.30;;
2934;SDS011;2462;51.456;7.248;2023-10-13T07:08:16;2.80;;;2.60;;
2934;SDS011;2462;51.456;7.248;2023-10-13T07:10:54;4.00;;;2.40;;
2934;SDS011;2462;51.456;7.248;2023-10-13T07:13:28;3.33;;;2.57;;
2934;SDS011;2462;51.456;7.248;2023-10-13T07:15:54;3.20;;;2.60;;
2934;SDS011;2462;51.456;7.248;2023-10-13T07:18:30;3.77;;;2.90;;
2934;SDS011;2462;51.456;7.248;2023-10-13T07:21:03;3.63;;;3.00;;
2934;SDS011;2462;51.456;7.248;2023-10-13T07:23:35;2.27;;;2.07;;
2934;SDS011;2462;51.456;7.248;2023-10-13T07:26:01;2.80;;;2.60;;
2934;SDS011;2462;51.456;7.248;2023-10-13T07:28:30;3.60;;;2.80;;
2934;SDS011;2462;51.456;7.248;2023-10-13T07:30:56;2.33;;;2.13;;
2934;SDS011;2462;51.456;7.248;2023-10-13T07:33:25;2.67;;;2.47;;
2934;SDS011;2462;51.456;7.248;2023-10-13T07:36:01;2.63;;;2.43;;
2934;SDS011;2462;51.456;7.248;2023-10-13T07:38:36;2.50;;;2.30;;
2934;SDS011;2462;51.456;7.248;2023-10-13T07:41:02;2.63;;;2.30;;
2934;SDS011;2462;51.456;7.248;2023-10-13T07:43:33;3.00;;;2.70;;
2934;SDS011;2462;51.456;7.248;2023-10-13T07:46:02;2.40;;;2.20;;
2934;SDS011;2462;51.456;7.248;2023-10-13T07:48:34;2.80;;;2.60;;
2934;SDS011;2462;51.456;7.248;2023-10-13T07:51:01;2.87;;;2.67;;
2934;SDS011;2462;51.456;7.248;2023-10-13T07:53:32;3.33;;;3.03;;
2934;SDS011;2462;51.456;7.248;2023-10-13T07:56:04;2.80;;;2.57;;
2934;SDS011;2462;51.456;7.248;2023-10-13T07:58:30;2.47;;;2.17;;
2934;SDS011;2462;51.456;7.248;2023-10-13T08:00:58;2.50;;;2.30;;
2934;SDS011;2462;51.456;7.248;2023-10-13T08:03:33;3.10;;;2.87;;
2934;SDS011;2462;51.456;7.248;2023-10-13T08:06:09;3.80;;;2.80;;
2934;SDS011;2462;51.456;7.248;2023-10-13T08:08:35;3.17;;;2.87;;
2934;SDS011;2462;51.456;7.248;2023-10-13T08:11:05;6.93;;;2.90;;
2934;SDS011;2462;51.456;7.248;2023-10-13T08:13:49;3.73;;;2.70;;
2934;SDS011;2462;51.456;7.248;2023-10-13T08:16:31;4.60;;;2.37;;
2934;SDS011;2462;51.456;7.248;2023-10-13T08:19:16;4.70;;;2.73;;
2934;SDS011;2462;51.456;7.248;2023-10-13T08:21:43;3.33;;;3.03;;
2934;SDS011;2462;51.456;7.248;2023-10-13T08:24:39;3.23;;;2.93;;
2934;SDS011;2462;51.456;7.248;2023-10-13T08:27:06;3.00;;;2.70;;
2934;SDS011;2462;51.456;7.248;2023-10-13T08:29:51;3.27;;;2.93;;
2934;SDS011;2462;51.456;7.248;2023-10-13T08:32:22;2.93;;;2.70;;
2934;SDS011;2462;51.456;7.248;2023-10-13T08:34:54;3.90;;;2.53;;
2934;SDS011;2462;51.456;7.248;2023-10-13T08:37:20;5.00;;;2.67;;
2934;SDS011;2462;51.456;7.248;2023-10-13T08:39:47;4.20;;;2.93;;
2934;SDS011;2462;51.456;7.248;2023-10-13T08:42:37;3.13;;;2.80;;
2934;SDS011;2462;51.456;7.248;2023-10-13T08:45:10;3.70;;;2.63;;
2934;SDS011;2462;51.456;7.248;2023-10-13T08:50:37;4.97;;;3.17;;
2934;SDS011;2462;51.456;7.248;2023-10-13T08:58:31;4.10;;;2.80;;
2934;SDS011;2462;51.456;7.248;2023-10-13T09:01:21;7.33;;;3.37;;
2934;SDS011;2462;51.456;7.248;2023-10-13T09:04:07;5.27;;;3.13;;
2934;SDS011;2462;51.456;7.248;2023-10-13T09:07:02;13.83;;;3.33;;
2934;SDS011;2462;51.456;7.248;2023-10-13T09:09:32;4.73;;;2.93;;
2934;SDS011;2462;51.456;7.248;2023-10-13T09:12:11;3.17;;;2.27;;
2934;SDS011;2462;51.456;7.248;2023-10-13T09:14:41;2.50;;;2.30;;
2934;SDS011;2462;51.456;7.248;2023-10-13T09:17:13;4.97;;;3.07;;
2934;SDS011;2462;51.456;7.248;2023-10-13T09:19:45;2.60;;;2.40;;
2934;SDS011;2462;51.456;7.248;2023-10-13T09:22:19;3.17;;;2.87;;
2934;SDS011;2462;51.456;7.248;2023-10-13T09:24:51;3.67;;;2.70;;
2934;SDS011;2462;51.456;7.248;2023-10-13T09:27:17;2.33;;;2.13;;
2934;SDS011;2462;51.456;7.248;2023-10-13T09:29:43;5.23;;;2.77;;
2934;SDS011;2462;51.456;7.248;2023-10-13T09:32:17;2.80;;;2.60;;
2934;SDS011;2462;51.456;7.248;2023-10-13T09:34:46;3.10;;;2.43;;
2934;SDS011;2462;51.456;7.248;2023-10-13T09:37:13;3.10;;;2.80;;
2934;SDS011;2462;51.456;7.248;2023-10-13T09:39:45;4.10;;;2.67;;
2934;SDS011;2462;51.456;7.248;2023-10-13T09:42:16;4.37;;;2.20;;
2934;SDS011;2462;51.456;7.248;2023-10-13T09:44:43;6.40;;;3.70;;
2934;SDS011;2462;51.456;7.248;2023-10-13T09:47:16;6.97;;;3.47;;
2934;SDS011;2462;51.456;7.248;2023-10-13T09:49:45;9.50;;;3.30;;
2934;SDS011;2462;51.456;7.248;2023-10-13T09:52:16;5.60;;;2.30;;
2934;SDS011;2462;51.456;7.248;2023-10-13T09:54:55;3.40;;;2.77;;
2934;SDS011;2462;51.456;7.248;2023-10-13T09:57:24;4.50;;;2.83;;
2934;SDS011;2462;51.456;7.248;2023-10-13T10:00:10;4.90;;;3.07;;
2934;SDS011;2462;51.456;7.248;2023-10-13T10:02:55;4.73;;;3.20;;
2934;SDS011;2462;51.456;7.248;2023-10-13T10:05:26;5.93;;;3.53;;
2934;SDS011;2462;51.456;7.248;2023-10-13T10:07:59;4.90;;;3.40;;
2934;SDS011;2462;51.456;7.248;2023-10-13T10:10:27;7.73;;;3.50;;
2934;SDS011;2462;51.456;7.248;2023-10-13T10:13:06;3.80;;;3.10;;
2934;SDS011;2462;51.456;7.248;2023-10-13T10:15:38;6.40;;;3.20;;
2934;SDS011;2462;51.456;7.248;2023-10-13T10:18:21;4.87;;;2.40;;
2934;SDS011;2462;51.456;7.248;2023-10-13T10:20:49;3.67;;;2.50;;
2934;SDS011;2462;51.456;7.248;2023-10-13T10:23:26;6.67;;;3.07;;
2934;SDS011;2462;51.456;7.248;2023-10-13T10:25:55;4.73;;;3.23;;
2934;SDS011;2462;51.456;7.248;2023-10-13T10:28:37;8.60;;;3.67;;
2934;SDS011;2462;51.456;7.248;2023-10-13T10:31:04;2.83;;;2.03;;
2934;SDS011;2462;51.456;7.248;2023-10-13T10:33:30;7.73;;;4.27;;
2934;SDS011;2462;51.456;7.248;2023-10-13T10:35:59;9.17;;;4.07;;
2934;SDS011;2462;51.456;7.248;2023-10-13T10:38:25;7.63;;;3.80;;
2934;SDS011;2462;51.456;7.248;2023-10-13T10:40:55;4.60;;;3.90;;
2934;SDS011;2462;51.456;7.248;2023-10-13T10:43:25;5.53;;;3.50;;
2934;SDS011;2462;51.456;7.248;2023-10-13T10:45:51;7.13;;;4.70;;
2934;SDS011;2462;51.456;7.248;2023-10-13T10:48:18;7.70;;;3.37;;
2934;SDS011;2462;51.456;7.248;2023-10-13T10:50:51;6.07;;;4.20;;
2934;SDS011;2462;51.456;7.248;2023-10-13T10:53:21;6.63;;;5.50;;
2934;SDS011;2462;51.456;7.248;2023-10-13T10:56:05;9.57;;;4.10;;
2934;SDS011;2462;51.456;7.248;2023-10-13T10:58:34;8.80;;;4.60;;
2934;SDS011;2462;51.456;7.248;2023-10-13T11:01:08;9.20;;;4.40;;
2934;SDS011;2462;51.456;7.248;2023-10-13T11:03:58;7.13;;;3.70;;
2934;SDS011;2462;51.456;7.248;2023-10-13T11:06:32;10.30;;;5.80;;
2934;SDS011;2462;51.456;7.248;2023-10-13T11:09:04;11.90;;;5.43;;
2934;SDS011;2462;51.456;7.248;2023-10-13T11:11:43;12.63;;;5.30;;
2934;SDS011;2462;51.456;7.248;2023-10-13T11:14:09;4.23;;;3.50;;
2934;SDS011;2462;51.456;7.248;2023-10-13T11:16:48;10.33;;;5.60;;
2934;SDS011;2462;51.456;7.248;2023-10-13T11:19:20;9.37;;;4.80;;
2934;SDS011;2462;51.456;7.248;2023-10-13T11:21:50;16.57;;;6.00;;
2934;SDS011;2462;51.456;7.248;2023-10-13T11:24:17;6.73;;;4.40;;
2934;SDS011;2462;51.456;7.248;2023-10-13T11:26:43;12.03;;;6.10;;
2934;SDS011;2462;51.456;7.248;2023-10-13T11:29:17;9.20;;;5.80;;
2934;SDS011;2462;51.456;7.248;2023-10-13T11:31:46;7.23;;;4.67;;
2934;SDS011;2462;51.456;7.248;2023-10-13T11:34:18;10.90;;;6.40;;
2934;SDS011;2462;51.456;7.248;2023-10-13T11:36:44;10.80;;;4.20;;
2934;SDS011;2462;51.456;7.248;2023-10-13T11:39:10;7.47;;;4.10;;
2934;SDS011;2462;51.456;7.248;2023-10-13T11:41:43;8.43;;;5.27;;
2934;SDS011;2462;51.456;7.248;2023-10-13T11:44:18;6.90;;;3.87;;
2934;SDS011;2462;51.456;7.248;2023-10-13T11:46:44;6.67;;;4.50;;
2934;SDS011;2462;51.456;7.248;2023-10-13T11:49:13;8.60;;;4.00;;
2934;SDS011;2462;51.456;7.248;2023-10-13T11:51:42;11.13;;;5.87;;
2934;SDS011;2462;51.456;7.248;2023-10-13T11:56:39;3.30;;;3.00;;
2934;SDS011;2462;51.456;7.248;2023-10-13T11:59:05;4.90;;;3.07;;
2934;SDS011;2462;51.456;7.248;2023-10-13T12:01:31;6.13;;;4.30;;
2934;SDS011;2462;51.456;7.248;2023-10-13T12:04:16;6.90;;;3.73;;
2934;SDS011;2462;51.456;7.248;2023-10-13T12:07:00;10.17;;;6.63;;
2934;SDS011;2462;51.456;7.248;2023-10-13T12:09:46;8.90;;;6.10;;
2934;SDS011;2462;51.456;7.248;2023-10-13T12:12:24;14.90;;;7.40;;
2934;SDS011;2462;51.456;7.248;2023-10-13T12:14:51;7.70;;;5.27;;
2934;SDS011;2462;51.456;7.248;2023-10-13T12:17:17;6.10;;;4.60;;
2934;SDS011;2462;51.456;7.248;2023-10-13T12:19:51;9.00;;;4.40;;
2934;SDS011;2462;51.456;7.248;2023-10-13T12:22:17;6.90;;;5.80;;
2934;SDS011;2462;51.456;7.248;2023-10-13T12:24:53;9.20;;;4.80;;
2934;SDS011;2462;51.456;7.248;2023-10-13T12:27:19;7.93;;;4.70;;
2934;SDS011;2462;51.456;7.248;2023-10-13T12:29:51;13.07;;;6.17;;
2934;SDS011;2462;51.456;7.248;2023-10-13T12:32:17;4.67;;;3.47;;
2934;SDS011;2462;51.456;7.248;2023-10-13T12:34:56;9.00;;;5.63;;
2934;SDS011;2462;51.456;7.248;2023-10-13T12:37:42;5.50;;;3.10;;
2934;SDS011;2462;51.456;7.248;2023-10-13T12:43:06;12.97;;;4.27;;
2934;SDS011;2462;51.456;7.248;2023-10-13T12:45:50;5.73;;;4.47;;
2934;SDS011;2462;51.456;7.248;2023-10-13T12:48:36;9.15;;;5.50;;
2934;SDS011;2462;51.456;7.248;2023-10-13T12:51:21;6.70;;;4.77;;
2934;SDS011;2462;51.456;7.248;2023-10-13T12:53:56;7.23;;;4.97;;
2934;SDS011;2462;51.456;7.248;2023-10-13T12:56:39;8.30;;;5.90;;
2934;SDS011;2462;51.456;7.248;2023-10-13T12:59:08;5.97;;;4.70;;
2934;SDS011;2462;51.456;7.248;2023-10-13T13:01:38;5.70;;;4.10;;
2934;SDS011;2462;51.456;7.248;2023-10-13T13:04:07;5.63;;;3.40;;
2934;SDS011;2462;51.456;7.248;2023-10-13T13:06:36;15.67;;;5.63;;
2934;SDS011;2462;51.456;7.248;2023-10-13T13:09:05;12.83;;;5.37;;
2934;SDS011;2462;51.456;7.248;2023-10-13T13:11:34;16.97;;;5.73;;
2934;SDS011;2462;51.456;7.248;2023-10-13T13:14:04;13.13;;;4.63;;
2934;SDS011;2462;51.456;7.248;2023-10-13T13:16:32;16.93;;;5.80;;
2934;SDS011;2462;51.456;7.248;2023-10-13T13:18:58;16.23;;;6.57;;
2934;SDS011;2462;51.456;7.248;2023-10-13T13:21:28;5.23;;;3.60;;
2934;SDS011;2462;51.456;7.248;2023-10-13T13:23:54;6.20;;;4.37;;
2934;SDS011;2462;51.456;7.248;2023-10-13T13:26:20;9.13;;;4.00;;
2934;SDS011;2462;51.456;7.248;2023-10-13T13:28:47;4.97;;;3.43;;
2934;SDS011;2462;51.456;7.248;2023-10-13T13:31:19;9.73;;;4.37;;
2934;SDS011;2462;51.456;7.248;2023-10-13T13:33:51;4.60;;;2.97;;
2934;SDS011;2462;51.456;7.248;2023-10-13T13:36:17;9.47;;;4.20;;
2934;SDS011;2462;51.456;7.248;2023-10-13T13:38:44;13.43;;;5.33;;
2934;SDS011;2462;51.456;7.248;2023-10-13T13:41:19;9.20;;;3.73;;
2934;SDS011;2462;51.456;7.248;2023-10-13T13:43:47;9.30;;;5.10;;
2934;SDS011;2462;51.456;7.248;2023-10-13T13:46:19;8.17;;;3.73;;
2934;SDS011;2462;51.456;7.248;2023-10-13T13:48:50;10.37;;;4.63;;
2934;SDS011;2462;51.456;7.248;2023-10-13T13:51:22;7.17;;;3.63;;
2934;SDS011;2462;51.456;7.248;2023-10-13T13:53:52;9.60;;;4.30;;
2934;SDS011;2462;51.456;7.248;2023-10-13T13:56:18;3.43;;;2.43;;
2934;SDS011;2462;51.456;7.248;2023-10-13T13:58:45;6.57;;;3.80;;
2934;SDS011;2462;51.456;7.248;2023-10-13T14:01:11;6.70;;;3.93;;
2934;SDS011;2462;51.456;7.248;2023-10-13T14:03:39;5.30;;;3.23;;
2934;SDS011;2462;51.456;7.248;2023-10-13T14:06:12;7.03;;;4.67;;
2934;SDS011;2462;51.456;7.248;2023-10-13T14:08:43;6.77;;;3.30;;
2934;SDS011;2462;51.456;7.248;2023-10-13T14:11:14;5.73;;;3.20;;
2934;SDS011;2462;51.456;7.248;2023-10-13T14:13:47;5.97;;;3.60;;
2934;SDS011;2462;51.456;7.248;2023-10-13T14:16:14;7.77;;;3.07;;
2934;SDS011;2462;51.456;7.248;2023-10-13T14:18:44;12.50;;;5.30;;
2934;SDS011;2462;51.456;7.248;2023-10-13T14:21:10;5.07;;;3.50;;
2934;SDS011;2462;51.456;7.248;2023-10-13T14:23:41;5.03;;;3.23;;
2934;SDS011;2462;51.456;7.248;2023-10-13T14:26:07;6.87;;;3.13;;
2934;SDS011;2462;51.456;7.248;2023-10-13T14:28:34;9.47;;;3.73;;
2934;SDS011;2462;51.456;7.248;2023-10-13T14:31:04;7.83;;;4.00;;
2934;SDS011;2462;51.456;7.248;2023-10-13T14:33:35;5.23;;;3.40;;
2934;SDS011;2462;51.456;7.248;2023-10-13T14:36:02;10.87;;;4.67;;
2934;SDS011;2462;51.456;7.248;2023-10-13T14:38:29;6.80;;;2.90;;
2934;SDS011;2462;51.456;7.248;2023-10-13T14:40:56;9.13;;;4.72;;
2934;SDS011;2462;51.456;7.248;2023-10-13T14:43:23;9.07;;;4.53;;
2934;SDS011;2462;51.456;7.248;2023-10-13T14:45:52;12.50;;;6.03;;
2934;SDS011;2462;51.456;7.248;2023-10-13T14:48:18;15.47;;;5.30;;
2934;SDS011;2462;51.456;7.248;2023-10-13T14:50:44;8.43;;;3.73;;
2934;SDS011;2462;51.456;7.248;2023-10-13T14:53:10;8.67;;;5.00;;
2934;SDS011;2462;51.456;7.248;2023-10-13T14:55:36;6.80;;;3.30;;
2934;SDS011;2462;51.456;7.248;2023-10-13T14:58:05;9.53;;;4.87;;
2934;SDS011;2462;51.456;7.248;2023-10-13T15:00:37;13.13;;;4.20;;
2934;SDS011;2462;51.456;7.248;2023-10-13T15:03:03;6.93;;;3.57;;
2934;SDS011;2462;51.456;7.248;2023-10-13T15:05:31;12.33;;;6.20;;
2934;SDS011;2462;51.456;7.248;2023-10-13T15:08:00;5.30;;;3.70;;
2934;SDS011;2462;51.456;7.248;2023-10-13T15:10:28;5.57;;;3.63;;
2934;SDS011;2462;51.456;7.248;2023-10-13T15:12:54;12.07;;;5.93;;
2934;SDS011;2462;51.456;7.248;2023-10-13T15:15:20;9.00;;;4.90;;
2934;SDS011;2462;51.456;7.248;2023-10-13T15:17:46;8.37;;;3.50;;
2934;SDS011;2462;51.456;7.248;2023-10-13T15:20:13;8.83;;;4.93;;
2934;SDS011;2462;51.456;7.248;2023-10-13T15:22:42;9.97;;;4.23;;
2934;SDS011;2462;51.456;7.248;2023-10-13T15:25:08;9.30;;;4.78;;
2934;SDS011;2462;51.456;7.248;2023-10-13T15:27:45;11.20;;;5.13;;
2934;SDS011;2462;51.456;7.248;2023-10-13T15:30:20;14.27;;;5.57;;
2934;SDS011;2462;51.456;7.248;2023-10-13T15:32:48;12.87;;;5.07;;
2934;SDS011;2462;51.456;7.248;2023-10-13T15:35:15;17.33;;;6.00;;
2934;SDS011;2462;51.456;7.248;2023-10-13T15:37:41;14.27;;;5.93;;
2934;SDS011;2462;51.456;7.248;2023-10-13T15:40:12;15.80;;;4.80;;
2934;SDS011;2462;51.456;7.248;2023-10-13T15:42:40;18.33;;;5.70;;
2934;SDS011;2462;51.456;7.248;2023-10-13T15:45:07;16.80;;;5.67;;
2934;SDS011;2462;51.456;7.248;2023-10-13T15:47:41;10.83;;;5.50;;
2934;SDS011;2462;51.456;7.248;2023-10-13T15:50:10;13.00;;;6.13;;
2934;SDS011;2462;51.456;7.248;2023-10-13T15:52:40;14.00;;;5.07;;
2934;SDS011;2462;51.456;7.248;2023-10-13T15:55:10;8.03;;;5.20;;
2934;SDS011;2462;51.456;7.248;2023-10-13T15:57:38;11.80;;;4.90;;
2934;SDS011;2462;51.456;7.248;2023-10-13T16:00:04;13.30;;;5.57;;
2934;SDS011;2462;51.456;7.248;2023-10-13T16:02:54;14.13;;;6.30;;